Archival Weather

Batten Intl

Racine, Wisconsin (KRAC)

Report from: Thursday, February 22, 2024 1:53 AM CST
Current time: Tuesday, April 23, 2024 3:25 AM CDT

Current weather – Weather history – Daily summaries
Weather forecast

Temperature5.6°C (42.1°F)
Wind chill3.6°C (38.4°F)
Dew point0.0°C (32.0°F)
Winds 5 kts (2.6 m/s, 5.8 mph) Northeast (50°)
Visibility10 mi. (16.1 km)
Clouds Scattered clouds 12,000 ft. (3,658 m)
Altimeter29.79 in.Hg (1009 mB)
Relative humidity67 %
Density altitude-897 ft. (-273 m)
Sea-level pressure100.9 kPa (1009 mB, 29.80 in.Hg)
Remarks Fully automated report
Automated weather observing station with precipitation discriminator
Flight conditions Visual Meteorological Conditions
Raw dataKRAC 220753Z AUTO 05005KT 10SM SCT120 06/00 A2979 RMK AO2 SLP090 T00560000
An error has occurred. This application may no longer respond until reloaded. Reload 🗙